リーブルヴィル の空港の天気 - METARとTAF

リーブルヴィル国際空港 ( FOOL / LBV ) - ガボン リーブルヴィル
飛行場実況気象(Metar)
観測時間06/14 21:30 WAT (06/14 20:30 UTC)
風向・風速南西 4m/s
視程10km以上
天気現象
全天の4割程度の雲 雲底高度 400m
気温28℃
湿度84%
気圧1012hPa
METARFOOL 142030Z 22008KT 9999 SCT013 28/25 Q1012 NOSIG
過去の天気等 Google飛行場航空写真 Wunderground天気予報

過去48時間のMETAR

飛行場予報(TAF)
発表時間: 6/14 18:00 WAT (6/14 17:00 UTC)
予報対象時間: 14日19時 WAT ~ 16日1時 WAT
風向・風速西南西 4m/s
視程10km以上
全天の4割程度の雲 雲底高度 300m
全天の8割程度の雲 雲底高度 910m
TAF FOOL 141700Z 1418/1524 24007KT 9999 SCT010 BKN030